Time;durP1;ratioP1;P1;durP2;ratioP2;P2;SDS_P1;SDS_P2;PMS_P1;PMS_P2;Temp;Humidity;BMP_temperature;BMP_pressure;BME280_temperature;BME280_humidity;BME280_pressure;Samples;Min_cycle;Max_cycle;Signal;HPM_P1;HPM_P2
2022/03/07 00:01:35;;;;;;;2.05;1.17;;;;;;;19.04;24.59;102602.50;7311856;19;130975;-68
2022/03/07 00:04:02;;;;;;;2.45;1.58;;;;;;;19.04;24.49;102601.63;7309178;19;129691;-68
2022/03/07 00:06:29;;;;;;;2.65;1.42;;;;;;;19.02;24.64;102599.06;7310348;19;129987;-68
2022/03/07 00:08:57;;;;;;;3.90;1.60;;;;;;;19.01;24.65;102607.63;7311681;19;129690;-68
2022/03/07 00:11:24;;;;;;;2.63;1.30;;;;;;;18.98;24.68;102602.47;7308673;19;129727;-68
2022/03/07 00:13:51;;;;;;;1.65;1.10;;;;;;;18.97;24.68;102598.81;7309526;19;129453;-67
2022/03/07 00:16:18;;;;;;;2.05;1.20;;;;;;;18.96;24.38;102610.97;7306893;19;129083;-68
2022/03/07 00:18:45;;;;;;;2.03;1.10;;;;;;;18.92;24.68;102606.94;7310732;19;130103;-68
2022/03/07 00:21:12;;;;;;;3.30;1.42;;;;;;;18.90;24.34;102600.72;7311999;19;130190;-68
2022/03/07 00:23:39;;;;;;;2.72;1.52;;;;;;;18.88;24.63;102609.28;7309232;19;129911;-68
2022/03/07 00:26:07;;;;;;;1.50;1.10;;;;;;;18.87;24.37;102613.09;7307771;19;129905;-67
2022/03/07 00:28:34;;;;;;;2.92;1.27;;;;;;;18.85;24.83;102614.34;7309726;19;129533;-68
2022/03/07 00:31:05;;;;;;;2.75;1.48;;;;;;;18.85;24.34;102608.81;7309259;19;131087;-68
2022/03/07 00:33:33;;;;;;;3.00;1.27;;;;;;;18.83;24.42;102611.81;7313057;19;130001;-68
2022/03/07 00:36:00;;;;;;;2.15;1.33;;;;;;;18.81;24.36;102615.84;7308254;19;129814;-68
2022/03/07 00:38:27;;;;;;;1.58;1.20;;;;;;;18.80;24.46;102622.47;7310030;19;129628;-67
2022/03/07 00:40:54;;;;;;;3.28;1.33;;;;;;;18.79;24.74;102623.50;7308700;19;130968;-68
2022/03/07 00:43:21;;;;;;;2.05;1.25;;;;;;;18.76;24.66;102625.63;7309032;19;129739;-68
2022/03/07 00:45:48;;;;;;;2.63;1.38;;;;;;;18.73;24.52;102623.25;7311600;19;129227;-68
2022/03/07 00:48:16;;;;;;;3.00;1.50;;;;;;;18.72;24.76;102624.31;7308493;19;131738;-68
2022/03/07 00:50:47;;;;;;;2.00;1.40;;;;;;;18.70;24.29;102618.16;7309743;19;129689;-68
2022/03/07 00:53:19;;;;;;;2.60;1.35;;;;;;;18.69;24.48;102619.22;7310842;19;129512;-68
2022/03/07 00:55:46;;;;;;;2.92;1.30;;;;;;;18.67;24.49;102628.78;7306688;19;129807;-68
2022/03/07 00:58:13;;;;;;;3.28;1.45;;;;;;;18.66;24.38;102627.06;7311522;19;130589;-68
2022/03/07 01:00:41;;;;;;;2.42;1.52;;;;;;;18.64;24.39;102630.03;7307234;19;129540;-68
2022/03/07 01:03:11;;;;;;;3.00;1.23;;;;;;;18.63;24.67;102633.88;7309545;19;129273;-68
2022/03/07 01:05:38;;;;;;;2.92;1.83;;;;;;;18.61;24.38;102628.53;7313606;19;129450;-68
2022/03/07 01:08:06;;;;;;;1.75;1.38;;;;;;;18.60;24.68;102634.28;7314585;19;129635;-68
2022/03/07 01:10:33;;;;;;;2.75;1.40;;;;;;;18.59;24.66;102635.34;7315936;19;129952;-68
2022/03/07 01:13:01;;;;;;;1.90;1.20;;;;;;;18.58;24.47;102640.03;7316991;19;129144;-68
2022/03/07 01:15:28;;;;;;;2.08;1.35;;;;;;;18.56;24.30;102633.00;7315107;19;129074;-68
2022/03/07 01:17:59;;;;;;;2.25;1.35;;;;;;;18.55;24.61;102632.13;7317554;19;130561;-68
2022/03/07 01:20:28;;;;;;;2.97;1.45;;;;;;;18.56;24.29;102633.00;7313778;19;131251;-68
2022/03/07 01:22:55;;;;;;;2.60;1.58;;;;;;;18.53;24.46;102627.84;7314266;19;129538;-68
2022/03/07 01:25:22;;;;;;;2.40;1.40;;;;;;;18.52;24.47;102631.69;7314386;19;129044;-68
2022/03/07 01:27:48;;;;;;;2.58;1.27;;;;;;;18.51;24.60;102618.88;7313141;19;130062;-67
2022/03/07 01:30:15;;;;;;;2.25;1.23;;;;;;;18.50;24.66;102625.47;7314856;19;130485;-67
2022/03/07 01:32:42;;;;;;;2.30;1.33;;;;;;;18.50;24.29;102625.47;7314407;19;130329;-68
2022/03/07 01:35:09;;;;;;;2.08;1.30;;;;;;;18.48;24.74;102624.81;7316160;19;129012;-67
2022/03/07 01:37:36;;;;;;;3.00;1.35;;;;;;;18.46;24.71;102619.50;7314288;19;129602;-68
2022/03/07 01:40:03;;;;;;;3.88;1.30;;;;;;;18.45;24.66;102620.56;7314085;19;129763;-68
2022/03/07 01:42:30;;;;;;;3.72;1.75;;;;;;;18.44;24.57;102619.72;7314351;19;129423;-68
2022/03/07 01:45:18;;;;;;;2.85;1.40;;;;;;;18.43;24.47;102618.00;7313977;19;129582;-68
2022/03/07 01:47:46;;;;;;;2.40;1.70;;;;;;;18.42;24.41;102613.50;7314906;19;131423;-68
2022/03/07 01:50:14;;;;;;;3.05;1.40;;;;;;;18.41;24.28;102609.03;7317173;19;129457;-68
2022/03/07 01:52:44;;;;;;;3.08;1.63;;;;;;;18.40;24.51;102612.00;7313805;19;129860;-68
2022/03/07 01:55:12;;;;;;;2.40;1.48;;;;;;;18.37;24.72;102607.69;7315870;19;129459;-68
2022/03/07 01:57:41;;;;;;;2.30;1.17;;;;;;;18.36;24.68;102605.97;7315146;19;129589;-68
2022/03/07 02:00:12;;;;;;;4.50;1.80;;;;;;;18.35;24.68;102601.47;7313391;19;129580;-68
2022/03/07 02:02:38;;;;;;;2.60;1.67;;;;;;;18.34;24.59;102602.53;7316122;19;129543;-68
2022/03/07 02:05:06;;;;;;;2.50;1.25;;;;;;;18.32;24.19;102601.91;7312545;19;129132;-68
2022/03/07 02:07:32;;;;;;;2.00;1.40;;;;;;;18.31;24.28;102594.66;7313782;19;129846;-68
2022/03/07 02:09:59;;;;;;;2.65;1.75;;;;;;;18.29;24.14;102585.69;7315405;19;131229;-68
2022/03/07 02:12:26;;;;;;;4.28;1.85;;;;;;;18.28;24.63;102586.75;7313279;19;129565;-68
2022/03/07 02:14:53;;;;;;;2.42;1.60;;;;;;;18.27;24.17;102582.25;7316234;19;129275;-68
2022/03/07 02:17:20;;;;;;;2.65;1.45;;;;;;;18.25;24.16;102576.94;7309560;19;130670;-68
2022/03/07 02:19:46;;;;;;;2.67;1.50;;;;;;;18.24;24.29;102582.66;7313095;19;130527;-68
2022/03/07 02:22:15;;;;;;;2.60;1.70;;;;;;;18.23;24.19;102584.59;7315741;19;128903;-68
2022/03/07 02:24:43;;;;;;;2.40;1.50;;;;;;;18.23;24.17;102592.03;7312787;19;128918;-68
2022/03/07 02:27:11;;;;;;;2.60;1.30;;;;;;;18.21;24.34;102586.69;7315253;19;129626;-68
2022/03/07 02:29:39;;;;;;;2.05;1.50;;;;;;;18.20;24.08;102586.91;7311874;19;134602;-68
2022/03/07 02:32:07;;;;;;;2.35;1.52;;;;;;;18.19;24.52;102586.03;7314232;19;129099;-67
2022/03/07 02:34:34;;;;;;;2.75;1.40;;;;;;;18.18;24.50;102586.25;7314062;19;129427;-68
2022/03/07 02:37:01;;;;;;;2.72;1.70;;;;;;;18.17;24.08;102587.31;7313106;19;130676;-67
2022/03/07 02:39:27;;;;;;;2.85;1.55;;;;;;;18.17;24.40;102584.53;7313951;19;129393;-68
2022/03/07 02:41:55;;;;;;;2.17;1.40;;;;;;;18.14;24.06;102581.13;7310516;19;129542;-67
2022/03/07 02:44:23;;;;;;;2.65;1.70;;;;;;;18.14;24.08;102583.03;7313606;19;130231;-68
2022/03/07 02:46:50;;;;;;;2.72;1.42;;;;;;;18.13;24.03;102582.16;7314318;19;129759;-68
2022/03/07 02:49:17;;;;;;;2.53;1.38;;;;;;;18.12;24.46;102577.69;7312000;19;129462;-68
2022/03/07 02:51:44;;;;;;;1.98;1.55;;;;;;;18.11;24.45;102587.06;7314497;19;129045;-68
2022/03/07 02:54:11;;;;;;;2.17;1.48;;;;;;;18.10;24.16;102582.56;7314125;19;129026;-68
2022/03/07 02:56:37;;;;;;;2.20;1.42;;;;;;;18.10;24.47;102584.50;7312648;19;131760;-68
2022/03/07 02:59:04;;;;;;;2.28;1.30;;;;;;;18.09;24.43;102575.31;7314246;19;130770;-67
2022/03/07 03:01:31;;;;;;;3.00;1.60;;;;;;;18.08;24.00;102581.94;7311369;19;129528;-68
2022/03/07 03:03:59;;;;;;;2.05;1.40;;;;;;;18.08;24.14;102581.06;7313818;19;129204;-67
2022/03/07 03:06:25;;;;;;;2.60;1.58;;;;;;;18.07;24.42;102583.00;7311516;19;129659;-67
2022/03/07 03:08:52;;;;;;;3.95;1.58;;;;;;;18.06;24.33;102574.88;7312622;19;129529;-68
2022/03/07 03:11:19;;;;;;;2.40;1.75;;;;;;;18.05;24.25;102582.34;7314132;19;128826;-68
2022/03/07 03:13:46;;;;;;;2.50;1.50;;;;;;;18.03;24.26;102572.53;7310518;19;129910;-67
2022/03/07 03:16:12;;;;;;;3.13;1.83;;;;;;;18.03;24.01;102578.91;7312817;19;131272;-67
2022/03/07 03:18:39;;;;;;;3.22;1.60;;;;;;;18.03;24.14;102589.16;7311278;19;129435;-68
2022/03/07 03:21:06;;;;;;;2.85;1.58;;;;;;;18.00;24.16;102585.72;7310279;19;129277;-67
2022/03/07 03:23:33;;;;;;;2.63;1.30;;;;;;;18.01;24.31;102586.56;7312198;19;130508;-68
2022/03/07 03:26:00;;;;;;;3.45;1.50;;;;;;;18.00;24.62;102587.59;7308376;19;130988;-68
2022/03/07 03:28:27;;;;;;;2.53;1.70;;;;;;;17.98;24.31;102587.81;7310865;19;129970;-67
2022/03/07 03:30:55;;;;;;;3.47;1.63;;;;;;;17.97;24.29;102585.28;7311685;19;129341;-67
2022/03/07 03:33:22;;;;;;;3.45;1.70;;;;;;;17.97;24.31;102577.81;7309143;19;129084;-68
2022/03/07 03:35:49;;;;;;;4.05;1.55;;;;;;;17.96;24.53;102586.31;7311343;19;129915;-69
2022/03/07 03:38:15;;;;;;;2.15;1.48;;;;;;;17.94;24.66;102591.19;7309904;19;130611;-69
2022/03/07 03:40:42;;;;;;;3.10;1.70;;;;;;;17.95;24.18;102587.38;7311146;19;129325;-68
2022/03/07 03:43:09;;;;;;;2.55;1.40;;;;;;;17.94;24.43;102593.97;7311156;19;129766;-68
2022/03/07 03:45:36;;;;;;;2.92;1.52;;;;;;;17.94;24.10;102596.75;7311814;19;129142;-68
2022/03/07 03:48:03;;;;;;;2.00;1.20;;;;;;;17.92;24.25;102599.69;7311948;19;131096;-68
2022/03/07 03:50:33;;;;;;;2.95;1.45;;;;;;;17.93;24.60;102600.56;7310267;19;129097;-68
2022/03/07 03:53:01;;;;;;;3.38;1.70;;;;;;;17.90;24.33;102596.28;7311864;19;129077;-68
2022/03/07 03:55:28;;;;;;;1.98;1.35;;;;;;;17.89;24.43;102593.69;7312133;19;130338;-69
2022/03/07 03:57:55;;;;;;;2.05;1.40;;;;;;;17.89;24.45;102594.56;7310361;19;130095;-69
2022/03/07 04:00:23;;;;;;;2.53;1.42;;;;;;;17.89;24.74;102599.25;7309500;19;130587;-68
2022/03/07 04:02:50;;;;;;;2.63;1.60;;;;;;;17.89;24.50;102596.47;7306114;19;130349;-68
2022/03/07 04:05:17;;;;;;;2.78;1.50;;;;;;;17.87;24.21;102591.16;7312250;19;130672;-68
2022/03/07 04:07:44;;;;;;;2.88;1.45;;;;;;;17.88;24.63;102594.75;7312665;19;130083;-68
2022/03/07 04:10:13;;;;;;;1.92;1.30;;;;;;;17.86;24.41;102594.97;7309908;19;128958;-68
2022/03/07 04:12:41;;;;;;;2.58;1.40;;;;;;;17.87;24.36;102595.81;7311316;19;129738;-68
2022/03/07 04:15:09;;;;;;;2.47;1.50;;;;;;;17.87;24.47;102590.28;7310184;19;129728;-68
2022/03/07 04:17:42;;;;;;;2.10;1.58;;;;;;;17.87;24.28;102593.03;7311395;19;130637;-68
2022/03/07 04:20:10;;;;;;;4.85;1.40;;;;;;;17.85;24.47;102593.25;7312920;19;129733;-69
2022/03/07 04:22:37;;;;;;;3.15;1.60;;;;;;;17.84;24.33;102592.41;7308696;19;129599;-68
2022/03/07 04:25:06;;;;;;;2.53;1.42;;;;;;;17.85;24.44;102587.72;7313057;19;129545;-68
2022/03/07 04:27:33;;;;;;;2.30;1.58;;;;;;;17.84;24.50;102591.53;7310788;19;129541;-69
2022/03/07 04:30:03;;;;;;;2.85;1.65;;;;;;;17.84;24.42;102591.53;7310112;19;128933;-68
2022/03/07 04:32:30;;;;;;;1.83;1.38;;;;;;;17.82;24.57;102588.97;7312748;19;130644;-69
2022/03/07 04:34:58;;;;;;;2.22;1.40;;;;;;;17.81;24.37;102590.03;7310137;19;130143;-69
2022/03/07 04:37:25;;;;;;;2.70;1.42;;;;;;;17.81;24.36;102586.41;7310911;19;130754;-68
2022/03/07 04:39:51;;;;;;;4.38;1.80;;;;;;;17.79;24.46;102589.38;7314793;19;129378;-68
2022/03/07 04:42:18;;;;;;;2.63;1.63;;;;;;;17.79;24.12;102586.59;7315578;19;129525;-68
2022/03/07 04:44:46;;;;;;;4.30;1.50;;;;;;;17.78;24.43;102586.81;7319791;19;129629;-69
2022/03/07 04:47:13;;;;;;;3.97;2.25;;;;;;;17.77;24.51;102588.72;7316139;19;130556;-69
2022/03/07 04:49:40;;;;;;;3.80;1.50;;;;;;;17.77;24.15;102590.63;7319030;19;129571;-69
2022/03/07 04:52:07;;;;;;;1.88;1.40;;;;;;;17.79;24.51;102586.59;7318078;19;129241;-69
2022/03/07 04:54:34;;;;;;;2.55;1.20;;;;;;;17.87;24.29;102591.16;7316284;19;130201;-68
2022/03/07 04:57:01;;;;;;;1.73;1.30;;;;;;;17.99;24.39;102595.06;7319208;19;132108;-68
2022/03/07 04:59:28;;;;;;;3.85;1.65;;;;;;;18.15;24.31;102582.81;7316564;19;129767;-68
2022/03/07 05:01:54;;;;;;;1.77;1.33;;;;;;;18.38;23.96;102584.47;7316701;19;129166;-68
2022/03/07 05:04:21;;;;;;;1.48;1.27;;;;;;;18.67;23.51;102589.97;7318006;19;129531;-68
2022/03/07 05:06:54;;;;;;;2.63;1.63;;;;;;;19.01;23.43;102589.03;7316793;19;129435;-69
2022/03/07 05:09:21;;;;;;;2.17;1.40;;;;;;;19.28;23.39;102580.81;7318199;19;130107;-68
2022/03/07 05:11:47;;;;;;;2.03;1.27;;;;;;;19.58;22.86;102585.97;7315889;19;130045;-68
2022/03/07 05:14:14;;;;;;;2.17;1.33;;;;;;;19.84;22.97;102587.03;7317024;19;129576;-68
2022/03/07 05:16:41;;;;;;;1.70;1.20;;;;;;;20.06;22.71;102600.75;7318383;19;129514;-68
2022/03/07 05:19:08;;;;;;;2.55;1.40;;;;;;;20.18;22.28;102595.38;7313985;19;129472;-68
2022/03/07 05:21:35;;;;;;;1.52;1.13;;;;;;;20.27;22.61;102592.16;7315681;19;129558;-68
2022/03/07 05:24:02;;;;;;;2.63;1.40;;;;;;;20.33;22.40;102598.78;7315384;19;130084;-68
2022/03/07 05:26:28;;;;;;;2.15;1.40;;;;;;;20.36;22.52;102598.34;7316710;19;129983;-69
2022/03/07 05:28:55;;;;;;;2.25;1.52;;;;;;;20.36;22.25;102591.94;7318415;19;129659;-68
2022/03/07 05:31:22;;;;;;;1.52;1.02;;;;;;;20.33;22.27;102590.44;7316167;19;130022;-68
2022/03/07 05:33:49;;;;;;;4.18;1.23;;;;;;;20.31;22.06;102597.31;7317689;19;129710;-68
2022/03/07 05:36:15;;;;;;;1.88;1.30;;;;;;;20.25;22.26;102599.88;7314093;19;132240;-68
2022/03/07 05:38:42;;;;;;;1.58;1.40;;;;;;;20.20;22.28;102588.53;7316704;19;131529;-68
2022/03/07 05:41:09;;;;;;;1.63;1.38;;;;;;;20.14;22.59;102589.41;7315938;19;129124;-68
2022/03/07 05:43:36;;;;;;;2.55;1.55;;;;;;;20.08;22.10;102579.16;7315661;19;130678;-68
2022/03/07 05:46:02;;;;;;;1.38;1.00;;;;;;;20.02;22.12;102585.59;7318535;19;130431;-68
2022/03/07 05:48:29;;;;;;;2.10;1.48;;;;;;;19.95;22.41;102589.16;7314773;19;130262;-68
2022/03/07 05:50:56;;;;;;;1.90;1.30;;;;;;;19.88;22.16;102584.72;7315282;19;129261;-68
2022/03/07 05:53:23;;;;;;;3.00;1.65;;;;;;;19.80;22.28;102583.84;7317835;19;129716;-68
2022/03/07 05:55:51;;;;;;;3.17;1.60;;;;;;;19.74;22.49;102581.06;7314325;19;129492;-68
2022/03/07 05:58:19;;;;;;;2.10;1.65;;;;;;;19.65;22.61;102581.28;7316238;19;128851;-68
2022/03/07 06:00:46;;;;;;;3.72;1.40;;;;;;;19.57;22.74;102580.66;7317258;19;129183;-68
2022/03/07 06:03:12;;;;;;;1.80;1.40;;;;;;;19.50;22.61;102578.72;7314984;19;129669;-68
2022/03/07 06:05:39;;;;;;;3.40;1.50;;;;;;;19.44;22.62;102585.13;7317510;19;129463;-68
2022/03/07 06:08:06;;;;;;;4.22;1.77;;;;;;;19.40;22.91;102585.75;7313536;19;128970;-68
2022/03/07 06:10:33;;;;;;;3.80;1.38;;;;;;;19.33;22.76;102581.03;7317041;19;128868;-68
2022/03/07 06:12:59;;;;;;;2.58;1.40;;;;;;;19.28;23.03;102591.91;7316605;19;129922;-67
2022/03/07 06:15:26;;;;;;;2.33;1.40;;;;;;;19.22;22.79;102589.97;7316524;19;130591;-66
2022/03/07 06:17:56;;;;;;;3.15;1.67;;;;;;;19.17;22.87;102598.91;7316771;19;129557;-66
2022/03/07 06:20:24;;;;;;;2.78;1.30;;;;;;;19.15;23.16;102602.94;7312266;19;129796;-63
2022/03/07 06:22:51;;;;;;;3.80;1.67;;;;;;;19.13;22.98;102610.63;7311836;19;129644;-63
2022/03/07 06:25:18;;;;;;;4.70;1.90;;;;;;;19.14;23.04;102617.88;7315496;19;130631;-64
2022/03/07 06:27:45;;;;;;;3.38;1.30;;;;;;;19.15;23.07;102608.50;7313303;19;128950;-64
2022/03/07 06:30:12;;;;;;;3.55;1.60;;;;;;;19.19;22.88;102612.59;7316732;19;129160;-64
2022/03/07 06:32:39;;;;;;;3.40;1.60;;;;;;;19.21;22.91;102616.88;7312336;19;130417;-64
2022/03/07 06:35:12;;;;;;;6.38;1.90;;;;;;;19.23;22.93;102611.09;7311560;19;130793;-67
2022/03/07 06:37:53;;;;;;;2.88;1.70;;;;;;;19.26;22.72;102616.25;7315468;19;130656;-62
2022/03/07 06:40:21;;;;;;;4.47;1.60;;;;;;;19.28;23.07;102616.03;7310914;19;128905;-63
2022/03/07 06:42:49;;;;;;;3.85;1.95;;;;;;;19.30;22.92;102619.44;7313097;19;130231;-64
2022/03/07 06:45:17;;;;;;;4.05;1.50;;;;;;;19.30;22.85;102617.53;7312362;19;130315;-63
2022/03/07 06:47:45;;;;;;;5.20;1.77;;;;;;;19.29;22.67;102610.28;7314635;19;129999;-63
2022/03/07 06:50:13;;;;;;;2.90;1.38;;;;;;;19.30;22.68;102616.69;7314876;19;129058;-63
2022/03/07 06:52:40;;;;;;;2.60;1.55;;;;;;;19.28;22.43;102608.56;7312037;19;129566;-64
2022/03/07 06:55:07;;;;;;;6.47;2.15;;;;;;;19.29;22.64;102604.72;7313682;19;130257;-64
2022/03/07 06:57:35;;;;;;;3.83;1.80;;;;;;;19.27;22.98;102612.41;7312099;19;132814;-63
2022/03/07 07:00:05;;;;;;;6.25;1.75;;;;;;;19.25;22.48;102614.53;7313598;19;129569;-64
2022/03/07 07:02:32;;;;;;;3.15;1.70;;;;;;;19.22;22.86;102615.81;7307574;19;129590;-63
2022/03/07 07:04:59;;;;;;;2.67;1.90;;;;;;;19.22;22.50;102626.03;7309113;19;129815;-63
2022/03/07 07:07:25;;;;;;;7.43;2.30;;;;;;;19.21;22.95;102627.09;7313374;19;128928;-63
2022/03/07 07:09:52;;;;;;;2.00;1.70;;;;;;;19.19;22.56;102632.84;7313252;19;129499;-64
2022/03/07 07:12:19;;;;;;;8.48;1.77;;;;;;;19.18;22.91;102639.44;7312008;19;129346;-63
2022/03/07 07:14:46;;;;;;;3.10;1.65;;;;;;;19.17;22.72;102634.97;7314684;19;132005;-64
2022/03/07 07:17:12;;;;;;;3.40;1.55;;;;;;;19.18;22.74;102639.44;7312770;19;128879;-63
2022/03/07 07:19:39;;;;;;;3.50;1.67;;;;;;;19.16;22.95;102638.81;7313495;19;129831;-64
2022/03/07 07:22:06;;;;;;;5.15;1.67;;;;;;;19.14;22.99;102635.38;7312405;19;129994;-63
2022/03/07 07:24:33;;;;;;;5.30;1.88;;;;;;;19.13;22.96;102642.00;7312719;19;130613;-63
2022/03/07 07:27:00;;;;;;;2.17;1.88;;;;;;;19.11;23.01;102646.03;7313945;19;129221;-64
2022/03/07 07:29:26;;;;;;;2.75;1.60;;;;;;;19.08;22.98;102647.31;7311645;19;129594;-63
2022/03/07 07:31:53;;;;;;;3.38;2.00;;;;;;;19.06;22.78;102650.31;7313255;19;130067;-64
2022/03/07 07:34:21;;;;;;;2.67;1.88;;;;;;;19.04;22.82;102646.88;7312854;19;130910;-64
2022/03/07 07:36:49;;;;;;;2.70;1.70;;;;;;;19.04;22.79;102649.66;7312011;19;128869;-63
2022/03/07 07:39:16;;;;;;;3.97;1.92;;;;;;;19.03;23.04;102655.38;7314304;19;129902;-64
2022/03/07 07:41:43;;;;;;;3.05;1.73;;;;;;;19.00;23.13;102645.56;7309805;19;129612;-64
2022/03/07 07:44:10;;;;;;;4.10;1.83;;;;;;;18.98;23.26;102653.25;7312308;19;130671;-63
2022/03/07 07:46:37;;;;;;;3.08;1.60;;;;;;;18.97;23.04;102651.53;7313843;19;129500;-64
2022/03/07 07:49:05;;;;;;;3.63;1.80;;;;;;;18.96;23.38;102652.59;7311954;19;129182;-64
2022/03/07 07:51:32;;;;;;;3.60;1.70;;;;;;;18.96;23.12;102655.38;7314009;19;131158;-63
2022/03/07 07:54:00;;;;;;;4.10;1.60;;;;;;;18.95;22.95;102669.44;7311551;19;130621;-63
2022/03/07 07:56:27;;;;;;;3.42;1.63;;;;;;;18.95;23.21;102662.00;7312775;19;128967;-63
2022/03/07 07:58:54;;;;;;;2.33;1.50;;;;;;;19.01;23.34;102663.09;7314195;19;130594;-63
2022/03/07 08:01:21;;;;;;;3.30;1.77;;;;;;;19.16;22.88;102671.25;7311183;19;129954;-63
2022/03/07 08:03:48;;;;;;;3.42;1.77;;;;;;;19.48;22.85;102664.13;7314343;19;129713;-63
2022/03/07 08:06:15;;;;;;;3.13;1.90;;;;;;;20.35;22.31;102662.47;7310148;19;128754;-64
2022/03/07 08:08:42;;;;;;;4.63;1.60;;;;;;;22.15;20.80;102664.66;7311666;19;128971;-64
2022/03/07 08:11:09;;;;;;;5.03;2.05;;;;;;;23.68;18.82;102666.72;7312908;19;129972;-64
2022/03/07 08:13:35;;;;;;;3.55;1.75;;;;;;;24.91;17.95;102661.56;7310477;19;131022;-64
2022/03/07 08:16:02;;;;;;;2.47;1.45;;;;;;;25.90;17.28;102667.94;7312848;19;128818;-64
2022/03/07 08:18:29;;;;;;;4.88;1.63;;;;;;;26.66;16.25;102664.63;7310144;19;129424;-64
2022/03/07 08:20:59;;;;;;;3.55;1.90;;;;;;;27.35;15.50;102661.56;7311594;19;129605;-65
2022/03/07 08:23:27;;;;;;;2.55;1.40;;;;;;;27.91;15.11;102664.94;7310462;19;131297;-65
2022/03/07 08:25:54;;;;;;;2.80;1.40;;;;;;;28.35;14.90;102665.81;7310151;19;129022;-65
2022/03/07 08:28:21;;;;;;;4.43;1.58;;;;;;;28.70;14.57;102665.22;7312138;19;129537;-65
2022/03/07 08:30:48;;;;;;;4.90;1.60;;;;;;;29.04;14.52;102666.75;7309899;19;131773;-65
2022/03/07 08:33:15;;;;;;;1.60;1.20;;;;;;;29.32;13.94;102667.41;7311141;19;129545;-65
2022/03/07 08:35:41;;;;;;;4.00;1.80;;;;;;;29.57;13.62;102677.03;7310972;19;129777;-65
2022/03/07 08:38:08;;;;;;;3.50;1.77;;;;;;;29.76;13.75;102677.38;7310004;19;128989;-65
2022/03/07 08:40:35;;;;;;;2.97;1.50;;;;;;;29.87;13.34;102670.59;7310764;19;129638;-65
2022/03/07 08:43:02;;;;;;;2.28;1.48;;;;;;;29.76;13.16;102683.00;7309306;19;129260;-65
2022/03/07 08:45:29;;;;;;;3.83;1.88;;;;;;;29.25;13.56;102675.31;7311114;19;129022;-64
2022/03/07 08:48:15;;;;;;;2.35;1.30;;;;;;;27.69;14.64;102676.25;7312372;19;128980;-64
2022/03/07 08:50:42;;;;;;;2.58;1.60;;;;;;;26.36;15.48;102671.50;7309622;19;131020;-64
2022/03/07 08:53:09;;;;;;;3.30;1.67;;;;;;;25.39;16.03;102663.06;7311306;19;130055;-63
2022/03/07 08:55:36;;;;;;;4.07;1.83;;;;;;;24.57;16.51;102663.06;7311437;19;128856;-64
2022/03/07 08:58:03;;;;;;;2.15;1.35;;;;;;;23.87;17.00;102653.53;7309570;19;130386;-64
2022/03/07 09:00:30;;;;;;;2.97;1.70;;;;;;;23.29;17.55;102655.88;7311433;19;129634;-64
2022/03/07 09:02:57;;;;;;;2.60;1.25;;;;;;;22.77;17.86;102644.31;7308903;19;129498;-63
2022/03/07 09:05:24;;;;;;;4.03;1.55;;;;;;;22.33;18.28;102644.34;7309545;19;128888;-63
2022/03/07 09:07:50;;;;;;;2.97;1.60;;;;;;;21.95;18.53;102644.22;7311089;19;128884;-63
2022/03/07 09:10:17;;;;;;;3.00;1.60;;;;;;;21.64;18.73;102633.97;7307346;19;129590;-63
2022/03/07 09:12:44;;;;;;;3.75;1.70;;;;;;;21.37;18.88;102640.53;7308703;19;130864;-63
2022/03/07 09:15:11;;;;;;;1.75;1.25;;;;;;;21.13;19.16;102631.03;7308121;19;128998;-64
2022/03/07 09:17:38;;;;;;;1.90;1.17;;;;;;;20.92;19.46;102634.97;7309970;19;128927;-64
2022/03/07 09:20:06;;;;;;;2.90;1.45;;;;;;;20.73;19.70;102636.72;7310121;19;130632;-64
2022/03/07 09:22:33;;;;;;;3.88;1.63;;;;;;;20.55;19.87;102634.66;7307768;19;129510;-64
2022/03/07 09:25:00;;;;;;;2.60;1.30;;;;;;;20.40;20.13;102637.69;7311197;19;129277;-63
2022/03/07 09:27:27;;;;;;;2.10;1.40;;;;;;;20.25;20.27;102636.00;7311106;19;129215;-63
2022/03/07 09:29:54;;;;;;;3.05;1.50;;;;;;;20.16;20.21;102633.66;7314538;19;129733;-63
2022/03/07 09:32:20;;;;;;;2.88;1.10;;;;;;;20.05;20.51;102635.16;7317409;19;131129;-63
2022/03/07 09:34:47;;;;;;;2.10;1.27;;;;;;;19.94;20.60;102634.69;7315278;19;128924;-63
2022/03/07 09:37:14;;;;;;;3.65;1.67;;;;;;;19.83;20.63;102632.53;7316554;19;129358;-63
2022/03/07 09:39:41;;;;;;;4.47;1.50;;;;;;;19.76;20.75;102637.25;7315305;19;132841;-64
2022/03/07 09:42:09;;;;;;;3.00;1.48;;;;;;;19.65;20.40;102635.94;7314049;19;130608;-63
2022/03/07 09:44:35;;;;;;;2.58;1.33;;;;;;;19.56;20.61;102620.56;7318332;19;129434;-63
2022/03/07 09:47:03;;;;;;;3.70;1.25;;;;;;;19.48;20.62;102622.50;7315358;19;128956;-63
2022/03/07 09:49:31;;;;;;;2.03;1.23;;;;;;;19.43;21.02;102618.66;7316692;19;131125;-63
2022/03/07 09:51:59;;;;;;;4.93;1.10;;;;;;;19.35;20.94;102628.84;7314790;19;129445;-63
2022/03/07 09:54:26;;;;;;;3.40;1.42;;;;;;;19.28;21.12;102619.66;7314556;19;129565;-63
2022/03/07 09:56:54;;;;;;;2.35;1.23;;;;;;;19.21;21.15;102616.00;7317100;19;128869;-63
2022/03/07 09:59:21;;;;;;;2.45;1.38;;;;;;;19.13;21.13;102611.50;7314969;19;130748;-63
2022/03/07 10:02:04;;;;;;;5.03;1.20;;;;;;;19.10;21.09;102613.81;7316746;19;130938;-63
2022/03/07 10:04:38;;;;;;;2.72;1.10;;;;;;;19.04;21.26;102613.59;7317782;19;129271;-63
2022/03/07 10:07:05;;;;;;;1.60;1.10;;;;;;;18.98;21.17;102608.03;7314190;19;129002;-63
2022/03/07 10:09:32;;;;;;;2.03;1.20;;;;;;;18.92;21.26;102598.63;7317390;19;130664;-63
2022/03/07 10:12:00;;;;;;;2.22;1.23;;;;;;;18.87;21.14;102598.38;7313534;19;129009;-63
2022/03/07 10:14:41;;;;;;;1.75;1.10;;;;;;;18.82;21.21;102592.59;7315734;19;129639;-63
2022/03/07 10:17:26;;;;;;;4.57;1.13;;;;;;;18.77;21.20;102588.53;7317103;19;128837;-63
2022/03/07 10:19:55;;;;;;;3.03;1.13;;;;;;;18.72;21.47;102588.28;7313642;19;130406;-63
2022/03/07 10:22:27;;;;;;;1.90;1.20;;;;;;;18.69;21.56;102587.84;7315679;19;130529;-63
2022/03/07 10:25:05;;;;;;;2.28;1.25;;;;;;;18.65;21.54;102586.53;7316939;19;128922;-63
2022/03/07 10:27:46;;;;;;;1.70;1.10;;;;;;;18.60;21.48;102582.47;7313479;19;129915;-63
2022/03/07 10:30:16;;;;;;;2.22;1.10;;;;;;;18.54;21.26;102588.00;7315649;19;129427;-63
2022/03/07 10:32:51;;;;;;;5.88;1.42;;;;;;;18.52;21.62;102576.25;7315342;19;130193;-64
2022/03/07 10:35:29;;;;;;;2.88;0.85;;;;;;;18.51;21.34;102571.75;7313951;19;129058;-63
2022/03/07 10:37:59;;;;;;;1.92;0.90;;;;;;;18.46;21.48;102566.84;7315460;19;129467;-63
2022/03/07 10:40:28;;;;;;;1.70;0.80;;;;;;;18.42;21.60;102577.50;7313256;19;130642;-63
2022/03/07 10:42:55;;;;;;;5.32;0.90;;;;;;;18.40;21.35;102571.28;7313289;19;129412;-63
2022/03/07 10:45:22;;;;;;;5.38;0.90;;;;;;;18.35;21.80;102576.53;7315907;19;131537;-63
2022/03/07 10:47:54;;;;;;;2.85;0.95;;;;;;;18.33;21.82;102567.59;7313687;19;129810;-63
2022/03/07 10:50:23;;;;;;;3.25;1.05;;;;;;;18.29;21.60;102566.28;7315905;19;132246;-63
2022/03/07 10:52:52;;;;;;;2.05;0.93;;;;;;;18.27;21.53;102565.63;7312938;19;129533;-63
2022/03/07 10:55:24;;;;;;;4.07;1.00;;;;;;;18.23;21.26;102556.88;7313513;19;128731;-63
2022/03/07 10:57:51;;;;;;;2.63;1.10;;;;;;;18.21;21.69;102552.63;7315601;19;128958;-63
2022/03/07 11:00:18;;;;;;;2.30;1.25;;;;;;;18.20;21.56;102556.44;7312505;19;129856;-64
2022/03/07 11:02:47;;;;;;;3.53;0.95;;;;;;;18.17;21.45;102548.53;7314304;19;132485;-63
2022/03/07 11:05:15;;;;;;;1.48;0.90;;;;;;;18.15;21.79;102549.59;7315474;19;128729;-64
2022/03/07 11:07:46;;;;;;;1.92;1.00;;;;;;;18.13;21.67;102546.16;7312837;19;129080;-63
2022/03/07 11:10:14;;;;;;;2.40;0.73;;;;;;;18.11;21.83;102552.97;7315016;19;129915;-63
2022/03/07 11:12:42;;;;;;;3.08;0.95;;;;;;;18.08;21.45;102545.94;7311824;19;129830;-63
2022/03/07 11:15:13;;;;;;;4.22;0.82;;;;;;;18.07;21.52;102540.56;7312955;19;129072;-68
2022/03/07 11:17:43;;;;;;;1.95;0.90;;;;;;;18.05;21.85;102543.56;7315803;19;128764;-69
2022/03/07 11:20:13;;;;;;;2.08;0.70;;;;;;;18.04;21.55;102535.44;7311378;19;130360;-68